UAL901 KBOS-KRDU
Flight info
| Callsign | UAL901 |
|---|---|
| Flight time | N/A |
| Altitude | 38000 |
| Route | SSOXS7 SSOXS Q167 ZJAAY TAQLE3 |
| Aircraft | A20N/M-SDE2E3FGHIRWXY/LB1 |
Departure
| Time | 2026-05-06 23:43 |
|---|---|
| Airport | Boston Logan International Airport (KBOS) |
Arrival
| Time | N/A |
|---|---|
| Airport | Raleigh-Durham International Airport (KRDU) |
| Time | Latitude | Longitude | Altitude | Speed | Heading |
|---|---|---|---|---|---|
| 2026-05-06 22:59 | 42.36812 | -71.01766 | 26 ft | 0 kts | 240° |
| 2026-05-06 23:28 | 42.36819 | -71.01750 | 26 ft | 2 kts | 240° |
| 2026-05-06 23:29 | 42.36826 | -71.01734 | 30 ft | 2 kts | 218° |
| 2026-05-06 23:29 | 42.36840 | -71.01728 | 26 ft | 2 kts | 151° |
| 2026-05-06 23:29 | 42.36848 | -71.01735 | 27 ft | 0 kts | 111° |
| 2026-05-06 23:31 | 42.36848 | -71.01736 | 27 ft | 2 kts | 109° |
| 2026-05-06 23:31 | 42.36848 | -71.01733 | 27 ft | 3 kts | 107° |
| 2026-05-06 23:32 | 42.36854 | -71.01713 | 27 ft | 5 kts | 53° |
| 2026-05-06 23:32 | 42.36890 | -71.01671 | 28 ft | 7 kts | 33° |
| 2026-05-06 23:32 | 42.36922 | -71.01642 | 29 ft | 5 kts | 34° |
| 2026-05-06 23:32 | 42.36962 | -71.01606 | 30 ft | 8 kts | 33° |
| 2026-05-06 23:33 | 42.37029 | -71.01598 | 32 ft | 11 kts | 329° |
| 2026-05-06 23:33 | 42.37093 | -71.01677 | 33 ft | 6 kts | 328° |
| 2026-05-06 23:33 | 42.37136 | -71.01681 | 32 ft | 6 kts | 20° |
| 2026-05-06 23:33 | 42.37170 | -71.01643 | 32 ft | 8 kts | 44° |
| 2026-05-06 23:34 | 42.37175 | -71.01636 | 30 ft | 0 kts | 44° |
| 2026-05-06 23:34 | 42.37176 | -71.01635 | 30 ft | 1 kts | 44° |
| 2026-05-06 23:35 | 42.37212 | -71.01574 | 33 ft | 14 kts | 68° |
| 2026-05-06 23:35 | 42.37187 | -71.01465 | 33 ft | 12 kts | 130° |
| 2026-05-06 23:35 | 42.37123 | -71.01376 | 31 ft | 15 kts | 135° |
| 2026-05-06 23:35 | 42.37085 | -71.01325 | 30 ft | 0 kts | 135° |
| 2026-05-06 23:37 | 42.37073 | -71.01309 | 30 ft | 6 kts | 135° |
| 2026-05-06 23:37 | 42.37014 | -71.01229 | 30 ft | 14 kts | 132° |
| 2026-05-06 23:37 | 42.36992 | -71.01124 | 28 ft | 10 kts | 71° |
| 2026-05-06 23:37 | 42.37021 | -71.01086 | 27 ft | 0 kts | 31° |
| 2026-05-06 23:38 | 42.37036 | -71.01076 | 27 ft | 6 kts | 27° |
| 2026-05-06 23:38 | 42.37088 | -71.01042 | 25 ft | 12 kts | 25° |
| 2026-05-06 23:38 | 42.37167 | -71.00991 | 25 ft | 12 kts | 26° |
| 2026-05-06 23:38 | 42.37244 | -71.00942 | 27 ft | 12 kts | 25° |
| 2026-05-06 23:39 | 42.37324 | -71.00891 | 25 ft | 13 kts | 25° |
| 2026-05-06 23:39 | 42.37374 | -71.00859 | 25 ft | 0 kts | 26° |
| 2026-05-06 23:39 | 42.37382 | -71.00854 | 27 ft | 0 kts | 25° |
| 2026-05-06 23:40 | 42.37384 | -71.00852 | 27 ft | 0 kts | 25° |
| 2026-05-06 23:40 | 42.37386 | -71.00852 | 27 ft | 2 kts | 20° |
| 2026-05-06 23:40 | 42.37460 | -71.00827 | 26 ft | 20 kts | 18° |
| 2026-05-06 23:41 | 42.37584 | -71.00768 | 28 ft | 18 kts | 20° |
| 2026-05-06 23:41 | 42.37695 | -71.00713 | 31 ft | 16 kts | 19° |
| 2026-05-06 23:41 | 42.37753 | -71.00684 | 32 ft | 3 kts | 33° |
| 2026-05-06 23:41 | 42.37770 | -71.00588 | 31 ft | 12 kts | 106° |
| 2026-05-06 23:42 | 42.37691 | -71.00507 | 30 ft | 14 kts | 191° |
| 2026-05-06 23:42 | 42.37446 | -71.00640 | 27 ft | 72 kts | 199° |
| 2026-05-06 23:42 | 42.36765 | -71.00966 | 31 ft | 133 kts | 200° |
| 2026-05-06 23:42 | 42.35781 | -71.01430 | 304 ft | 155 kts | 198° |
| 2026-05-06 23:43 | 42.34749 | -71.01688 | 1001 ft | 148 kts | 179° |
| 2026-05-06 23:43 | 42.33745 | -71.01189 | 1555 ft | 174 kts | 153° |
| 2026-05-06 23:43 | 42.32787 | -70.99896 | 2036 ft | 208 kts | 137° |
| 2026-05-06 23:43 | 42.31864 | -70.98257 | 2573 ft | 231 kts | 132° |
| 2026-05-06 23:44 | 42.31221 | -70.96179 | 3199 ft | 253 kts | 102° |
| 2026-05-06 23:44 | 42.31307 | -70.93717 | 3776 ft | 270 kts | 82° |
| 2026-05-06 23:44 | 42.31679 | -70.91189 | 4459 ft | 283 kts | 78° |
| 2026-05-06 23:44 | 42.32102 | -70.88521 | 5135 ft | 297 kts | 78° |
| 2026-05-06 23:45 | 42.32526 | -70.85752 | 6014 ft | 304 kts | 79° |
| 2026-05-06 23:45 | 42.32942 | -70.82926 | 6940 ft | 309 kts | 81° |
| 2026-05-06 23:45 | 42.33055 | -70.80017 | 7843 ft | 311 kts | 103° |
| 2026-05-06 23:45 | 42.32416 | -70.77247 | 8758 ft | 310 kts | 118° |
| 2026-05-06 23:46 | 42.31523 | -70.74574 | 9673 ft | 314 kts | 121° |
| 2026-05-06 23:46 | 42.30569 | -70.71889 | 10422 ft | 323 kts | 124° |
| 2026-05-06 23:46 | 42.29274 | -70.69339 | 10772 ft | 335 kts | 142° |
| 2026-05-06 23:46 | 42.27373 | -70.67543 | 11301 ft | 334 kts | 163° |
| 2026-05-06 23:47 | 42.25209 | -70.66411 | 12147 ft | 335 kts | 169° |
| 2026-05-06 23:47 | 42.22992 | -70.65405 | 13040 ft | 338 kts | 170° |
| 2026-05-06 23:47 | 42.20754 | -70.64405 | 13699 ft | 340 kts | 170° |
| 2026-05-06 23:47 | 42.18505 | -70.63396 | 13961 ft | 341 kts | 170° |
| 2026-05-06 23:48 | 42.16220 | -70.62702 | 13993 ft | 332 kts | 183° |
| 2026-05-06 23:48 | 42.13976 | -70.62920 | 14016 ft | 318 kts | 200° |
| 2026-05-06 23:48 | 42.11980 | -70.64075 | 14020 ft | 309 kts | 217° |
| 2026-05-06 23:48 | 42.10321 | -70.65877 | 14019 ft | 306 kts | 225° |
| 2026-05-06 23:49 | 42.08774 | -70.67858 | 14016 ft | 306 kts | 226° |
| 2026-05-06 23:49 | 42.07246 | -70.69857 | 14019 ft | 306 kts | 226° |
| 2026-05-06 23:49 | 42.06095 | -70.71357 | 14018 ft | 306 kts | 226° |
| 2026-05-06 23:50 | 42.05355 | -70.72318 | 14017 ft | 306 kts | 226° |
| 2026-05-06 23:50 | 42.04633 | -70.73253 | 14017 ft | 306 kts | 226° |
| 2026-05-06 23:50 | 42.03095 | -70.75237 | 14019 ft | 306 kts | 226° |
| 2026-05-06 23:51 | 42.01556 | -70.77215 | 14021 ft | 306 kts | 226° |
| 2026-05-06 23:51 | 42.00017 | -70.79191 | 14027 ft | 306 kts | 226° |
| 2026-05-06 23:51 | 41.98477 | -70.81163 | 14017 ft | 306 kts | 226° |
| 2026-05-06 23:51 | 41.96953 | -70.83114 | 14023 ft | 306 kts | 226° |
| 2026-05-06 23:53 | 41.95750 | -70.84652 | 14030 ft | 306 kts | 226° |
| 2026-05-06 23:53 | 41.94207 | -70.86622 | 14025 ft | 306 kts | 226° |
| 2026-05-06 23:53 | 41.92663 | -70.88594 | 14061 ft | 306 kts | 226° |
| 2026-05-06 23:53 | 41.91115 | -70.90569 | 14048 ft | 308 kts | 226° |
| 2026-05-06 23:54 | 41.89555 | -70.92558 | 14392 ft | 311 kts | 226° |
| 2026-05-06 23:54 | 41.87981 | -70.94563 | 15238 ft | 312 kts | 226° |
| 2026-05-06 23:54 | 41.86385 | -70.96596 | 16141 ft | 312 kts | 226° |
| 2026-05-06 23:54 | 41.84802 | -70.98609 | 16969 ft | 315 kts | 226° |
| 2026-05-06 23:55 | 41.83205 | -71.00639 | 17724 ft | 318 kts | 226° |
| 2026-05-06 23:55 | 41.81586 | -71.02695 | 18405 ft | 323 kts | 226° |
| 2026-05-06 23:55 | 41.79945 | -71.04780 | 19000 ft | 328 kts | 226° |
| 2026-05-06 23:55 | 41.78277 | -71.06895 | 19620 ft | 332 kts | 227° |
| 2026-05-06 23:56 | 41.76590 | -71.09034 | 20245 ft | 335 kts | 227° |
| 2026-05-06 23:56 | 41.74911 | -71.11160 | 20865 ft | 339 kts | 228° |
| 2026-05-06 23:56 | 41.73166 | -71.13368 | 21486 ft | 343 kts | 228° |
| 2026-05-06 23:56 | 41.71425 | -71.15570 | 22090 ft | 346 kts | 229° |
| 2026-05-06 23:57 | 41.69665 | -71.17794 | 22691 ft | 350 kts | 229° |
| 2026-05-06 23:57 | 41.67886 | -71.20041 | 23289 ft | 353 kts | 229° |
| 2026-05-06 23:57 | 41.66090 | -71.22306 | 23782 ft | 356 kts | 230° |
| 2026-05-06 23:57 | 41.64309 | -71.24550 | 24376 ft | 356 kts | 230° |
| 2026-05-06 23:58 | 41.62479 | -71.26852 | 24956 ft | 357 kts | 230° |
| 2026-05-06 23:58 | 41.60691 | -71.29101 | 25461 ft | 358 kts | 230° |
| 2026-05-06 23:58 | 41.58874 | -71.31386 | 25971 ft | 360 kts | 230° |
| 2026-05-06 23:58 | 41.57046 | -71.33682 | 26462 ft | 361 kts | 230° |
| 2026-05-06 23:59 | 41.55208 | -71.35989 | 26948 ft | 363 kts | 230° |
| 2026-05-06 23:59 | 41.53367 | -71.38298 | 27413 ft | 364 kts | 230° |
| 2026-05-06 23:59 | 41.51517 | -71.40616 | 27867 ft | 365 kts | 230° |
| 2026-05-06 23:59 | 41.49659 | -71.42943 | 28287 ft | 367 kts | 230° |
| 2026-05-07 00:00 | 41.47788 | -71.45284 | 28686 ft | 370 kts | 231° |
| 2026-05-07 00:00 | 41.45910 | -71.47632 | 29104 ft | 371 kts | 231° |
| 2026-05-07 00:00 | 41.44021 | -71.49992 | 29514 ft | 373 kts | 231° |
| 2026-05-07 00:00 | 41.42738 | -71.51594 | 29784 ft | 375 kts | 230° |
| 2026-05-07 00:01 | 41.40223 | -71.54768 | 30235 ft | 375 kts | 234° |
| 2026-05-07 00:01 | 41.38811 | -71.57596 | 30629 ft | 363 kts | 251° |
| 2026-05-07 00:01 | 41.38281 | -71.60821 | 31152 ft | 356 kts | 268° |
| 2026-05-07 00:01 | 41.38655 | -71.64074 | 31623 ft | 361 kts | 284° |
| 2026-05-07 00:02 | 41.39906 | -71.67019 | 32051 ft | 376 kts | 301° |
| 2026-05-07 00:02 | 41.41940 | -71.69340 | 32463 ft | 397 kts | 318° |
| 2026-05-07 00:02 | 41.44577 | -71.70749 | 32878 ft | 423 kts | 335° |
| 2026-05-07 00:02 | 41.47599 | -71.71057 | 33304 ft | 451 kts | 352° |
| 2026-05-07 00:03 | 41.50754 | -71.70242 | 33710 ft | 471 kts | 4° |
| 2026-05-07 00:03 | 41.53889 | -71.68919 | 34116 ft | 473 kts | 6° |
| 2026-05-07 00:03 | 41.57015 | -71.67513 | 34401 ft | 474 kts | 6° |
| 2026-05-07 00:03 | 41.60140 | -71.66098 | 34665 ft | 475 kts | 6° |
| 2026-05-07 00:04 | 41.63266 | -71.64677 | 34974 ft | 474 kts | 6° |
| 2026-05-07 00:04 | 41.66385 | -71.63333 | 35286 ft | 465 kts | 1° |
| 2026-05-07 00:04 | 41.69502 | -71.62516 | 35578 ft | 448 kts | 353° |
| 2026-05-07 00:04 | 41.72554 | -71.62356 | 35856 ft | 430 kts | 343° |
| 2026-05-07 00:05 | 41.75456 | -71.62857 | 36121 ft | 413 kts | 333° |
| 2026-05-07 00:05 | 41.78146 | -71.63975 | 36317 ft | 397 kts | 324° |
| 2026-05-07 00:05 | 41.80557 | -71.65623 | 36556 ft | 382 kts | 316° |
| 2026-05-07 00:05 | 41.82658 | -71.67696 | 36821 ft | 369 kts | 308° |
| 2026-05-07 00:06 | 41.84436 | -71.70104 | 37098 ft | 358 kts | 301° |
| 2026-05-07 00:06 | 41.85867 | -71.72729 | 37345 ft | 349 kts | 294° |
| 2026-05-07 00:06 | 41.86991 | -71.75582 | 37586 ft | 343 kts | 287° |
| 2026-05-07 00:06 | 41.87789 | -71.78569 | 37794 ft | 339 kts | 281° |
| 2026-05-07 00:07 | 41.88422 | -71.84749 | 37831 ft | 335 kts | 269° |
| 2026-05-07 00:07 | 41.87765 | -71.90928 | 37835 ft | 337 kts | 257° |
| 2026-05-07 00:08 | 41.85843 | -71.96716 | 37829 ft | 346 kts | 244° |
| 2026-05-07 00:08 | 41.82653 | -72.01698 | 37829 ft | 363 kts | 230° |
| 2026-05-07 00:09 | 41.78549 | -72.05782 | 37823 ft | 369 kts | 227° |
| 2026-05-07 00:09 | 41.74373 | -72.09784 | 37832 ft | 369 kts | 227° |
| 2026-05-07 00:10 | 41.70212 | -72.13797 | 37830 ft | 368 kts | 227° |
| 2026-05-07 00:10 | 41.66055 | -72.17815 | 37832 ft | 368 kts | 227° |
| 2026-05-07 00:11 | 41.61929 | -72.21800 | 37804 ft | 368 kts | 227° |
| 2026-05-07 00:11 | 41.57773 | -72.25809 | 37857 ft | 369 kts | 227° |
| 2026-05-07 00:12 | 41.53617 | -72.29810 | 37832 ft | 367 kts | 227° |
| 2026-05-07 00:12 | 41.49467 | -72.33799 | 37832 ft | 367 kts | 227° |
| 2026-05-07 00:13 | 41.45994 | -72.37135 | 37852 ft | 367 kts | 227° |
| 2026-05-07 00:13 | 41.41847 | -72.41110 | 37851 ft | 367 kts | 227° |
| 2026-05-07 00:14 | 41.37723 | -72.45057 | 37849 ft | 367 kts | 227° |
| 2026-05-07 00:14 | 41.33571 | -72.49024 | 37851 ft | 367 kts | 227° |
| 2026-05-07 00:15 | 41.29415 | -72.52989 | 37850 ft | 367 kts | 227° |
| 2026-05-07 00:15 | 41.25262 | -72.56944 | 37840 ft | 368 kts | 228° |
| 2026-05-07 00:16 | 41.21094 | -72.60910 | 37863 ft | 369 kts | 228° |
| 2026-05-07 00:16 | 41.16924 | -72.64868 | 37847 ft | 367 kts | 228° |
| 2026-05-07 00:17 | 41.12766 | -72.68808 | 37849 ft | 367 kts | 228° |
| 2026-05-07 00:17 | 41.08609 | -72.72744 | 37816 ft | 367 kts | 228° |
| 2026-05-07 00:18 | 41.04448 | -72.76676 | 37873 ft | 368 kts | 228° |
| 2026-05-07 00:18 | 41.00280 | -72.80608 | 37873 ft | 368 kts | 228° |
| 2026-05-07 00:19 | 40.96141 | -72.84507 | 37866 ft | 368 kts | 228° |
| 2026-05-07 00:19 | 40.91972 | -72.88428 | 37882 ft | 368 kts | 228° |
| 2026-05-07 00:20 | 40.87798 | -72.92347 | 37880 ft | 368 kts | 228° |
| 2026-05-07 00:20 | 40.83623 | -72.96262 | 37885 ft | 368 kts | 228° |
| 2026-05-07 00:21 | 40.79457 | -73.00159 | 37860 ft | 366 kts | 228° |
| 2026-05-07 00:21 | 40.75300 | -73.04044 | 37853 ft | 366 kts | 228° |
| 2026-05-07 00:22 | 40.71139 | -73.07927 | 37842 ft | 366 kts | 229° |
| 2026-05-07 00:22 | 40.66972 | -73.11811 | 37853 ft | 367 kts | 229° |
| 2026-05-07 00:23 | 40.62807 | -73.15686 | 37857 ft | 367 kts | 229° |
| 2026-05-07 00:23 | 40.58639 | -73.19556 | 37858 ft | 367 kts | 229° |
| 2026-05-07 00:24 | 40.54467 | -73.23424 | 37858 ft | 367 kts | 229° |
| 2026-05-07 00:24 | 40.50292 | -73.27290 | 37864 ft | 367 kts | 229° |
| 2026-05-07 00:25 | 40.46114 | -73.31153 | 37868 ft | 367 kts | 229° |
| 2026-05-07 00:25 | 40.41963 | -73.34984 | 37867 ft | 367 kts | 229° |
| 2026-05-07 00:26 | 40.37785 | -73.38834 | 37868 ft | 367 kts | 229° |
| 2026-05-07 00:26 | 40.33603 | -73.42682 | 37864 ft | 367 kts | 229° |
| 2026-05-07 00:27 | 40.29419 | -73.46527 | 37882 ft | 367 kts | 229° |
| 2026-05-07 00:27 | 40.25233 | -73.50366 | 37876 ft | 367 kts | 229° |
| 2026-05-07 00:28 | 40.21060 | -73.54189 | 37868 ft | 367 kts | 229° |
| 2026-05-07 00:28 | 40.18974 | -73.56094 | 37518 ft | 364 kts | 229° |
| 2026-05-07 00:28 | 40.16901 | -73.57986 | 36996 ft | 362 kts | 229° |
| 2026-05-07 00:29 | 40.14833 | -73.59876 | 36326 ft | 363 kts | 229° |
| 2026-05-07 00:29 | 40.12759 | -73.61774 | 35691 ft | 365 kts | 229° |
| 2026-05-07 00:30 | 40.06476 | -73.67503 | 33977 ft | 367 kts | 227° |
| 2026-05-07 00:30 | 40.04379 | -73.69410 | 33329 ft | 368 kts | 227° |
| 2026-05-07 00:30 | 40.02271 | -73.71329 | 32598 ft | 370 kts | 227° |
| 2026-05-07 00:30 | 40.00152 | -73.73256 | 32077 ft | 373 kts | 226° |
| 2026-05-07 00:31 | 39.98006 | -73.75209 | 31902 ft | 379 kts | 226° |
| 2026-05-07 00:31 | 39.95832 | -73.77184 | 31873 ft | 382 kts | 226° |
| 2026-05-07 00:31 | 39.91445 | -73.81154 | 31883 ft | 384 kts | 226° |
| 2026-05-07 00:32 | 39.87051 | -73.85123 | 31884 ft | 384 kts | 226° |
| 2026-05-07 00:32 | 39.82691 | -73.89059 | 31886 ft | 384 kts | 226° |
| 2026-05-07 00:33 | 39.78302 | -73.93017 | 31870 ft | 384 kts | 226° |
| 2026-05-07 00:33 | 39.73900 | -73.96982 | 31887 ft | 386 kts | 225° |
| 2026-05-07 00:34 | 39.69482 | -74.00953 | 31902 ft | 386 kts | 226° |
| 2026-05-07 00:34 | 39.65074 | -74.04906 | 31886 ft | 384 kts | 226° |
| 2026-05-07 00:35 | 39.60682 | -74.08842 | 31884 ft | 384 kts | 226° |
| 2026-05-07 00:35 | 39.56293 | -74.12770 | 31884 ft | 383 kts | 226° |
| 2026-05-07 00:36 | 39.51901 | -74.16693 | 31888 ft | 383 kts | 226° |
| 2026-05-07 00:36 | 39.47507 | -74.20613 | 31890 ft | 383 kts | 226° |
| 2026-05-07 00:37 | 39.43143 | -74.24498 | 31882 ft | 383 kts | 226° |
| 2026-05-07 00:37 | 39.38745 | -74.28409 | 31870 ft | 384 kts | 225° |
| 2026-05-07 00:38 | 39.34332 | -74.32329 | 31890 ft | 386 kts | 225° |
| 2026-05-07 00:38 | 39.29907 | -74.36250 | 31900 ft | 386 kts | 225° |
| 2026-05-07 00:39 | 39.25492 | -74.40153 | 31883 ft | 383 kts | 225° |
| 2026-05-07 00:39 | 39.21095 | -74.44039 | 31889 ft | 383 kts | 225° |
| 2026-05-07 00:40 | 39.16689 | -74.47930 | 31890 ft | 386 kts | 225° |
| 2026-05-07 00:40 | 39.12249 | -74.51842 | 31896 ft | 387 kts | 225° |
| 2026-05-07 00:41 | 39.07801 | -74.55753 | 31896 ft | 387 kts | 225° |
| 2026-05-07 00:41 | 39.03348 | -74.59662 | 31892 ft | 387 kts | 225° |
| 2026-05-07 00:42 | 38.98897 | -74.63564 | 31897 ft | 387 kts | 225° |
| 2026-05-07 00:42 | 38.94436 | -74.67470 | 31896 ft | 388 kts | 225° |
| 2026-05-07 00:43 | 38.89974 | -74.71370 | 31898 ft | 388 kts | 225° |
| 2026-05-07 00:43 | 38.85511 | -74.75263 | 31899 ft | 388 kts | 225° |
| 2026-05-07 00:44 | 38.81078 | -74.79127 | 31899 ft | 388 kts | 225° |
| 2026-05-07 00:44 | 38.76601 | -74.83024 | 31898 ft | 391 kts | 224° |
| 2026-05-07 00:45 | 38.72093 | -74.86940 | 31902 ft | 392 kts | 224° |
| 2026-05-07 00:45 | 38.67579 | -74.90854 | 31900 ft | 392 kts | 224° |
| 2026-05-07 00:46 | 38.63062 | -74.94765 | 31903 ft | 392 kts | 224° |
| 2026-05-07 00:46 | 38.58545 | -74.98671 | 31897 ft | 392 kts | 224° |
| 2026-05-07 00:47 | 38.54007 | -75.02589 | 31901 ft | 394 kts | 224° |
| 2026-05-07 00:47 | 38.49459 | -75.06509 | 31915 ft | 394 kts | 224° |
| 2026-05-07 00:48 | 38.44928 | -75.10406 | 31897 ft | 392 kts | 224° |
| 2026-05-07 00:48 | 38.40413 | -75.14285 | 31897 ft | 391 kts | 224° |
| 2026-05-07 00:49 | 38.38159 | -75.16222 | 31691 ft | 390 kts | 223° |
| 2026-05-07 00:49 | 38.35937 | -75.18128 | 31043 ft | 391 kts | 223° |
| 2026-05-07 00:49 | 38.33649 | -75.20090 | 30424 ft | 391 kts | 222° |
| 2026-05-07 00:49 | 38.31398 | -75.22017 | 29892 ft | 389 kts | 222° |
| 2026-05-07 00:50 | 38.29188 | -75.23905 | 29294 ft | 386 kts | 222° |
| 2026-05-07 00:50 | 38.26966 | -75.25804 | 28709 ft | 384 kts | 222° |
| 2026-05-07 00:50 | 38.24757 | -75.27690 | 28149 ft | 381 kts | 222° |
| 2026-05-07 00:50 | 38.22560 | -75.29565 | 27599 ft | 379 kts | 222° |
| 2026-05-07 00:51 | 38.20378 | -75.31426 | 27056 ft | 377 kts | 222° |
| 2026-05-07 00:51 | 38.18209 | -75.33276 | 26471 ft | 375 kts | 221° |
| 2026-05-07 00:51 | 38.16040 | -75.35125 | 25890 ft | 375 kts | 221° |
| 2026-05-07 00:51 | 38.13879 | -75.36965 | 25385 ft | 373 kts | 221° |
| 2026-05-07 00:52 | 38.11728 | -75.38794 | 24890 ft | 371 kts | 222° |
| 2026-05-07 00:52 | 38.09591 | -75.40611 | 24403 ft | 369 kts | 222° |
| 2026-05-07 00:52 | 38.07465 | -75.42416 | 24038 ft | 366 kts | 222° |
| 2026-05-07 00:52 | 38.05406 | -75.44276 | 23925 ft | 360 kts | 227° |
| 2026-05-07 00:53 | 38.03518 | -75.46331 | 23901 ft | 356 kts | 230° |
| 2026-05-07 00:53 | 38.01698 | -75.48450 | 23908 ft | 355 kts | 231° |
| 2026-05-07 00:53 | 37.99889 | -75.50579 | 23907 ft | 354 kts | 231° |
| 2026-05-07 00:53 | 37.98082 | -75.52705 | 23895 ft | 355 kts | 230° |
| 2026-05-07 00:54 | 37.96261 | -75.54846 | 23914 ft | 358 kts | 230° |
| 2026-05-07 00:54 | 37.94427 | -75.56996 | 23915 ft | 360 kts | 230° |
| 2026-05-07 00:54 | 37.92588 | -75.59149 | 23916 ft | 360 kts | 230° |
| 2026-05-07 00:54 | 37.90771 | -75.61272 | 23914 ft | 360 kts | 230° |
| 2026-05-07 00:55 | 37.88930 | -75.63422 | 23914 ft | 360 kts | 230° |
| 2026-05-07 00:55 | 37.87088 | -75.65572 | 23914 ft | 360 kts | 230° |
| 2026-05-07 00:55 | 37.85244 | -75.67722 | 23915 ft | 360 kts | 230° |
| 2026-05-07 00:55 | 37.83401 | -75.69870 | 23915 ft | 360 kts | 230° |
| 2026-05-07 00:56 | 37.81555 | -75.72019 | 23915 ft | 360 kts | 230° |
| 2026-05-07 00:56 | 37.79713 | -75.74162 | 23915 ft | 360 kts | 230° |
| 2026-05-07 00:56 | 37.77867 | -75.76309 | 23897 ft | 361 kts | 230° |
| 2026-05-07 00:56 | 37.76015 | -75.78462 | 23929 ft | 362 kts | 230° |
| 2026-05-07 00:57 | 37.74162 | -75.80613 | 23919 ft | 361 kts | 230° |
| 2026-05-07 00:57 | 37.72315 | -75.82755 | 23915 ft | 360 kts | 230° |
| 2026-05-07 00:57 | 37.70474 | -75.84888 | 23916 ft | 359 kts | 230° |
| 2026-05-07 00:57 | 37.68634 | -75.87022 | 23916 ft | 359 kts | 230° |
| 2026-05-07 00:58 | 37.66791 | -75.89156 | 23914 ft | 359 kts | 230° |
| 2026-05-07 00:58 | 37.64952 | -75.91285 | 23916 ft | 359 kts | 230° |
| 2026-05-07 00:58 | 37.63108 | -75.93417 | 23917 ft | 359 kts | 230° |
| 2026-05-07 00:58 | 37.61284 | -75.95561 | 23914 ft | 358 kts | 232° |
| 2026-05-07 00:59 | 37.58052 | -76.00239 | 23916 ft | 352 kts | 237° |
| 2026-05-07 00:59 | 37.56530 | -76.02609 | 23918 ft | 352 kts | 238° |
| 2026-05-07 00:59 | 37.54993 | -76.05009 | 23919 ft | 352 kts | 238° |
| 2026-05-07 01:00 | 37.53452 | -76.07408 | 23915 ft | 352 kts | 238° |
| 2026-05-07 01:00 | 37.51911 | -76.09804 | 23917 ft | 352 kts | 238° |
| 2026-05-07 01:00 | 37.50368 | -76.12198 | 23918 ft | 352 kts | 238° |
| 2026-05-07 01:00 | 37.48824 | -76.14592 | 23941 ft | 352 kts | 238° |
| 2026-05-07 01:01 | 37.47283 | -76.16975 | 23920 ft | 350 kts | 238° |
| 2026-05-07 01:01 | 37.45750 | -76.19347 | 23920 ft | 349 kts | 238° |
| 2026-05-07 01:01 | 37.44221 | -76.21712 | 23908 ft | 348 kts | 238° |
| 2026-05-07 01:01 | 37.42693 | -76.24073 | 23908 ft | 348 kts | 238° |
| 2026-05-07 01:02 | 37.41662 | -76.25666 | 23908 ft | 348 kts | 238° |
| 2026-05-07 01:02 | 37.40132 | -76.28027 | 23908 ft | 348 kts | 238° |
| 2026-05-07 01:02 | 37.38604 | -76.30384 | 23886 ft | 348 kts | 237° |
| 2026-05-07 01:02 | 37.37067 | -76.32757 | 23910 ft | 352 kts | 237° |
| 2026-05-07 01:03 | 37.35515 | -76.35150 | 23911 ft | 354 kts | 237° |
| 2026-05-07 01:03 | 37.33953 | -76.37551 | 23903 ft | 355 kts | 237° |
| 2026-05-07 01:03 | 37.32410 | -76.39923 | 23904 ft | 355 kts | 237° |
| 2026-05-07 01:03 | 37.30826 | -76.42355 | 23909 ft | 355 kts | 237° |
| 2026-05-07 01:04 | 37.29262 | -76.44756 | 23908 ft | 355 kts | 237° |
| 2026-05-07 01:04 | 37.27718 | -76.47125 | 23907 ft | 355 kts | 237° |
| 2026-05-07 01:04 | 37.26158 | -76.49523 | 23929 ft | 355 kts | 237° |
| 2026-05-07 01:04 | 37.24612 | -76.51930 | 23936 ft | 354 kts | 238° |
| 2026-05-07 01:05 | 37.23074 | -76.54331 | 23934 ft | 354 kts | 238° |
| 2026-05-07 01:05 | 37.21500 | -76.56799 | 23921 ft | 371 kts | 237° |
| 2026-05-07 01:05 | 37.19856 | -76.59377 | 23918 ft | 386 kts | 237° |
| 2026-05-07 01:05 | 37.18140 | -76.62060 | 23911 ft | 401 kts | 236° |
| 2026-05-07 01:06 | 37.16359 | -76.64838 | 23924 ft | 416 kts | 236° |
| 2026-05-07 01:06 | 37.14523 | -76.67695 | 24049 ft | 426 kts | 236° |
| 2026-05-07 01:06 | 37.12816 | -76.70750 | 24192 ft | 429 kts | 245° |
| 2026-05-07 01:06 | 37.11706 | -76.74220 | 24303 ft | 430 kts | 256° |
| 2026-05-07 01:07 | 37.10989 | -76.77783 | 23924 ft | 412 kts | 259° |
| 2026-05-07 01:07 | 37.10372 | -76.81200 | 23533 ft | 391 kts | 259° |
| 2026-05-07 01:07 | 37.09786 | -76.84436 | 23158 ft | 371 kts | 259° |
| 2026-05-07 01:07 | 37.09226 | -76.87509 | 22819 ft | 352 kts | 259° |
| 2026-05-07 01:08 | 37.08700 | -76.90424 | 22537 ft | 334 kts | 259° |
| 2026-05-07 01:08 | 37.08201 | -76.93191 | 22260 ft | 317 kts | 259° |
| 2026-05-07 01:08 | 37.07723 | -76.95822 | 22009 ft | 303 kts | 259° |
| 2026-05-07 01:08 | 37.07260 | -76.98350 | 21942 ft | 294 kts | 259° |
| 2026-05-07 01:09 | 37.06802 | -77.00840 | 21936 ft | 294 kts | 259° |
| 2026-05-07 01:09 | 37.06344 | -77.03336 | 21932 ft | 294 kts | 259° |
| 2026-05-07 01:09 | 37.05893 | -77.05804 | 21932 ft | 295 kts | 259° |
| 2026-05-07 01:09 | 37.05436 | -77.08306 | 21932 ft | 295 kts | 259° |
| 2026-05-07 01:10 | 37.04981 | -77.10810 | 21936 ft | 295 kts | 259° |
| 2026-05-07 01:10 | 37.04527 | -77.13313 | 21930 ft | 295 kts | 259° |
| 2026-05-07 01:10 | 37.04071 | -77.15818 | 21930 ft | 295 kts | 259° |
| 2026-05-07 01:10 | 37.03616 | -77.18319 | 21928 ft | 295 kts | 259° |
| 2026-05-07 01:11 | 37.03162 | -77.20823 | 21929 ft | 295 kts | 259° |
| 2026-05-07 01:11 | 37.02710 | -77.23327 | 21937 ft | 295 kts | 259° |
| 2026-05-07 01:11 | 37.02262 | -77.25833 | 21908 ft | 296 kts | 259° |
| 2026-05-07 01:11 | 37.01822 | -77.28365 | 21920 ft | 299 kts | 259° |
| 2026-05-07 01:12 | 37.01383 | -77.30919 | 21920 ft | 301 kts | 259° |
| 2026-05-07 01:12 | 37.00943 | -77.33478 | 21922 ft | 301 kts | 259° |
| 2026-05-07 01:12 | 37.00503 | -77.36040 | 21924 ft | 301 kts | 259° |
| 2026-05-07 01:12 | 37.00065 | -77.38601 | 21924 ft | 301 kts | 259° |
| 2026-05-07 01:13 | 36.99627 | -77.41162 | 21924 ft | 301 kts | 259° |
| 2026-05-07 01:13 | 36.99191 | -77.43720 | 21927 ft | 301 kts | 259° |
| 2026-05-07 01:13 | 36.98754 | -77.46279 | 21925 ft | 301 kts | 259° |
| 2026-05-07 01:13 | 36.98317 | -77.48837 | 21926 ft | 301 kts | 260° |
| 2026-05-07 01:14 | 36.97881 | -77.51391 | 21927 ft | 301 kts | 260° |
| 2026-05-07 01:14 | 36.97452 | -77.53916 | 21926 ft | 301 kts | 259° |
| 2026-05-07 01:14 | 36.97018 | -77.56475 | 21927 ft | 301 kts | 260° |
| 2026-05-07 01:14 | 36.96585 | -77.59034 | 21924 ft | 301 kts | 260° |
| 2026-05-07 01:15 | 36.96050 | -77.61562 | 21939 ft | 301 kts | 253° |
| 2026-05-07 01:15 | 36.95166 | -77.63933 | 21938 ft | 303 kts | 243° |
| 2026-05-07 01:15 | 36.93843 | -77.66009 | 21945 ft | 310 kts | 230° |
| 2026-05-07 01:15 | 36.92064 | -77.67599 | 21950 ft | 320 kts | 216° |
| 2026-05-07 01:16 | 36.90041 | -77.68817 | 21952 ft | 325 kts | 212° |
| 2026-05-07 01:16 | 36.87965 | -77.69945 | 21955 ft | 326 kts | 212° |
| 2026-05-07 01:16 | 36.85878 | -77.71063 | 21958 ft | 326 kts | 212° |
| 2026-05-07 01:16 | 36.83793 | -77.72182 | 21945 ft | 326 kts | 212° |
| 2026-05-07 01:17 | 36.81710 | -77.73305 | 21958 ft | 327 kts | 212° |
| 2026-05-07 01:17 | 36.79619 | -77.74435 | 21963 ft | 328 kts | 212° |
| 2026-05-07 01:17 | 36.77525 | -77.75567 | 21961 ft | 328 kts | 212° |
| 2026-05-07 01:17 | 36.75432 | -77.76699 | 21963 ft | 328 kts | 212° |
| 2026-05-07 01:18 | 36.73338 | -77.77831 | 21963 ft | 328 kts | 212° |
| 2026-05-07 01:18 | 36.71245 | -77.78962 | 21962 ft | 328 kts | 212° |
| 2026-05-07 01:18 | 36.69153 | -77.80093 | 21960 ft | 328 kts | 212° |
| 2026-05-07 01:18 | 36.67060 | -77.81224 | 21960 ft | 328 kts | 212° |
| 2026-05-07 01:19 | 36.64964 | -77.82355 | 21966 ft | 328 kts | 212° |
| 2026-05-07 01:19 | 36.62873 | -77.83484 | 21968 ft | 328 kts | 212° |
| 2026-05-07 01:19 | 36.60779 | -77.84613 | 21931 ft | 328 kts | 212° |
| 2026-05-07 01:19 | 36.58686 | -77.85742 | 21964 ft | 329 kts | 212° |
| 2026-05-07 01:20 | 36.56583 | -77.86876 | 21970 ft | 329 kts | 212° |
| 2026-05-07 01:20 | 36.54482 | -77.88006 | 21929 ft | 329 kts | 212° |
| 2026-05-07 01:20 | 36.52378 | -77.89138 | 21922 ft | 330 kts | 212° |
| 2026-05-07 01:20 | 36.50273 | -77.90270 | 21931 ft | 330 kts | 212° |
| 2026-05-07 01:21 | 36.48166 | -77.91402 | 21935 ft | 330 kts | 212° |
| 2026-05-07 01:21 | 36.46093 | -77.92514 | 21769 ft | 328 kts | 212° |
| 2026-05-07 01:21 | 36.44000 | -77.93637 | 21298 ft | 327 kts | 212° |
| 2026-05-07 01:21 | 36.41914 | -77.94755 | 20877 ft | 325 kts | 211° |
| 2026-05-07 01:22 | 36.39843 | -77.95864 | 20474 ft | 323 kts | 212° |
| 2026-05-07 01:22 | 36.37793 | -77.96963 | 20138 ft | 318 kts | 212° |
| 2026-05-07 01:22 | 36.35764 | -77.98048 | 19728 ft | 317 kts | 212° |
| 2026-05-07 01:22 | 36.33744 | -77.99130 | 19316 ft | 316 kts | 212° |
| 2026-05-07 01:23 | 36.31736 | -78.00204 | 18929 ft | 314 kts | 212° |
| 2026-05-07 01:23 | 36.29735 | -78.01274 | 18533 ft | 312 kts | 212° |
| 2026-05-07 01:23 | 36.27748 | -78.02336 | 18133 ft | 310 kts | 212° |
| 2026-05-07 01:23 | 36.25774 | -78.03399 | 17689 ft | 307 kts | 213° |
| 2026-05-07 01:24 | 36.23967 | -78.04718 | 17235 ft | 296 kts | 226° |
| 2026-05-07 01:24 | 36.22611 | -78.06539 | 16982 ft | 282 kts | 242° |
| 2026-05-07 01:24 | 36.21678 | -78.08660 | 16949 ft | 280 kts | 248° |
| 2026-05-07 01:24 | 36.20872 | -78.10860 | 16951 ft | 280 kts | 250° |
| 2026-05-07 01:25 | 36.20122 | -78.13086 | 16957 ft | 280 kts | 251° |
| 2026-05-07 01:25 | 36.19381 | -78.15317 | 16799 ft | 279 kts | 251° |
| 2026-05-07 01:25 | 36.18640 | -78.17547 | 16198 ft | 283 kts | 251° |
| 2026-05-07 01:25 | 36.17879 | -78.19833 | 15244 ft | 292 kts | 250° |
| 2026-05-07 01:26 | 36.17045 | -78.22183 | 14129 ft | 306 kts | 243° |
| 2026-05-07 01:26 | 36.15598 | -78.24195 | 12984 ft | 324 kts | 219° |
| 2026-05-07 01:26 | 36.13526 | -78.25320 | 12321 ft | 330 kts | 197° |
| 2026-05-07 01:26 | 36.11252 | -78.25320 | 12031 ft | 325 kts | 176° |
| 2026-05-07 01:27 | 36.09113 | -78.24679 | 11979 ft | 310 kts | 170° |
| 2026-05-07 01:27 | 36.07173 | -78.23567 | 11975 ft | 319 kts | 149° |
| 2026-05-07 01:27 | 36.05670 | -78.21517 | 11969 ft | 329 kts | 124° |
| 2026-05-07 01:27 | 36.04850 | -78.18859 | 11955 ft | 335 kts | 101° |
| 2026-05-07 01:28 | 36.04852 | -78.15988 | 11569 ft | 337 kts | 77° |
| 2026-05-07 01:28 | 36.05725 | -78.13334 | 11107 ft | 333 kts | 52° |
| 2026-05-07 01:28 | 36.07325 | -78.11342 | 10671 ft | 323 kts | 27° |
| 2026-05-07 01:28 | 36.09345 | -78.10337 | 10283 ft | 307 kts | 3° |
| 2026-05-07 01:29 | 36.11445 | -78.10192 | 9885 ft | 300 kts | 352° |
| 2026-05-07 01:29 | 36.13487 | -78.10445 | 9409 ft | 290 kts | 337° |
| 2026-05-07 01:29 | 36.15195 | -78.11597 | 8922 ft | 274 kts | 311° |
| 2026-05-07 01:29 | 36.16220 | -78.13485 | 8515 ft | 261 kts | 285° |
| 2026-05-07 01:30 | 36.16419 | -78.15666 | 8113 ft | 254 kts | 265° |
| 2026-05-07 01:30 | 36.16200 | -78.17821 | 7976 ft | 252 kts | 261° |
| 2026-05-07 01:30 | 36.15915 | -78.19969 | 7909 ft | 253 kts | 260° |
| 2026-05-07 01:30 | 36.15665 | -78.22124 | 7544 ft | 253 kts | 265° |
| 2026-05-07 01:31 | 36.15486 | -78.24284 | 7567 ft | 253 kts | 262° |
| 2026-05-07 01:31 | 36.15152 | -78.26429 | 7907 ft | 254 kts | 257° |
| 2026-05-07 01:31 | 36.14638 | -78.28503 | 7997 ft | 252 kts | 249° |
| 2026-05-07 01:31 | 36.13908 | -78.30478 | 8008 ft | 253 kts | 245° |
| 2026-05-07 01:32 | 36.13096 | -78.32415 | 7865 ft | 254 kts | 244° |
| 2026-05-07 01:32 | 36.12254 | -78.34334 | 7461 ft | 253 kts | 243° |
| 2026-05-07 01:32 | 36.11404 | -78.36231 | 7091 ft | 251 kts | 243° |
| 2026-05-07 01:32 | 36.10565 | -78.38081 | 6892 ft | 241 kts | 243° |
| 2026-05-07 01:33 | 36.09759 | -78.39851 | 6762 ft | 231 kts | 243° |
| 2026-05-07 01:33 | 36.08815 | -78.41396 | 6628 ft | 226 kts | 222° |
| 2026-05-07 01:33 | 36.07363 | -78.42124 | 6451 ft | 232 kts | 192° |
| 2026-05-07 01:33 | 36.05732 | -78.42027 | 6169 ft | 237 kts | 178° |
| 2026-05-07 01:34 | 36.04151 | -78.41376 | 5875 ft | 246 kts | 154° |
| 2026-05-07 01:34 | 36.02950 | -78.39843 | 5574 ft | 256 kts | 122° |
| 2026-05-07 01:34 | 36.02497 | -78.37725 | 5277 ft | 258 kts | 91° |
| 2026-05-07 01:34 | 36.02799 | -78.35555 | 5050 ft | 258 kts | 73° |
| 2026-05-07 01:35 | 36.03342 | -78.33416 | 5013 ft | 267 kts | 71° |
| 2026-05-07 01:35 | 36.03967 | -78.31117 | 4960 ft | 297 kts | 70° |
| 2026-05-07 01:35 | 36.04653 | -78.28650 | 4995 ft | 306 kts | 70° |
| 2026-05-07 01:35 | 36.05337 | -78.26161 | 5008 ft | 306 kts | 70° |
| 2026-05-07 01:36 | 36.06023 | -78.23673 | 5004 ft | 306 kts | 70° |
| 2026-05-07 01:36 | 36.06718 | -78.21178 | 5006 ft | 307 kts | 70° |
| 2026-05-07 01:36 | 36.07407 | -78.18686 | 5000 ft | 306 kts | 70° |
| 2026-05-07 01:36 | 36.08097 | -78.16199 | 4992 ft | 306 kts | 70° |
| 2026-05-07 01:37 | 36.08789 | -78.13744 | 4996 ft | 307 kts | 70° |
| 2026-05-07 01:37 | 36.09491 | -78.11248 | 4993 ft | 306 kts | 69° |
| 2026-05-07 01:37 | 36.10532 | -78.08996 | 4989 ft | 300 kts | 44° |
| 2026-05-07 01:37 | 36.12190 | -78.07528 | 4987 ft | 289 kts | 16° |
| 2026-05-07 01:38 | 36.14115 | -78.07060 | 4989 ft | 279 kts | 355° |
| 2026-05-07 01:38 | 36.16047 | -78.07090 | 4996 ft | 278 kts | 351° |
| 2026-05-07 01:38 | 36.17980 | -78.07200 | 4983 ft | 278 kts | 350° |
| 2026-05-07 01:38 | 36.19913 | -78.07323 | 4981 ft | 278 kts | 350° |
| 2026-05-07 01:39 | 36.21824 | -78.07589 | 4982 ft | 274 kts | 341° |
| 2026-05-07 01:39 | 36.23492 | -78.08531 | 4983 ft | 258 kts | 314° |
| 2026-05-07 01:39 | 36.24520 | -78.10246 | 4982 ft | 245 kts | 286° |